createdAt,value
2022-09-25T00:01:52.127Z,23.00
2022-09-25T00:04:20.629Z,20.33
2022-09-25T00:06:48.672Z,20.77
2022-09-25T00:09:20.305Z,20.63
2022-09-25T00:11:47.307Z,19.60
2022-09-25T00:14:14.390Z,19.23
2022-09-25T00:16:41.411Z,18.75
2022-09-25T00:19:38.175Z,19.52
2022-09-25T00:22:05.253Z,18.15
2022-09-25T00:24:32.290Z,19.48
2022-09-25T00:27:01.228Z,17.17
2022-09-25T00:29:28.235Z,17.87
2022-09-25T00:31:55.642Z,18.40
2022-09-25T00:34:22.591Z,19.50
2022-09-25T00:36:49.528Z,19.20
2022-09-25T00:39:16.481Z,20.50
2022-09-25T00:41:43.627Z,19.88
2022-09-25T00:44:48.328Z,19.73
2022-09-25T00:47:23.072Z,18.75
2022-09-25T00:49:52.032Z,18.85
2022-09-25T00:52:19.334Z,19.43
2022-09-25T00:54:54.059Z,19.67
2022-09-25T00:57:27.040Z,18.25
2022-09-25T01:00:00.570Z,18.15
2022-09-25T01:02:40.187Z,19.48
2022-09-25T01:06:10.829Z,19.02
2022-09-25T01:08:39.330Z,18.85
2022-09-25T01:11:06.359Z,19.38
2022-09-25T01:13:33.620Z,19.92
2022-09-25T01:16:17.283Z,20.45
2022-09-25T01:18:53.688Z,21.60
2022-09-25T01:21:35.825Z,20.33
2022-09-25T01:24:44.149Z,20.02
2022-09-25T01:27:52.231Z,20.02
2022-09-25T01:30:20.815Z,20.08
2022-09-25T01:33:07.390Z,21.25
2022-09-25T01:35:40.251Z,19.77
2022-09-25T01:38:36.063Z,21.38
2022-09-25T01:41:07.849Z,23.35
2022-09-25T01:44:06.663Z,22.40
2022-09-25T01:46:41.320Z,20.67
2022-09-25T01:49:17.697Z,19.77
2022-09-25T01:51:50.856Z,22.60
2022-09-25T01:54:22.785Z,20.00
2022-09-25T01:57:05.144Z,21.23
2022-09-25T01:59:45.725Z,20.08
2022-09-25T02:02:19.407Z,19.83
2022-09-25T02:04:56.908Z,20.63
2022-09-25T02:07:31.093Z,21.95
2022-09-25T02:10:07.577Z,22.88
2022-09-25T02:12:48.025Z,22.30
2022-09-25T02:15:31.207Z,27.08
2022-09-25T02:18:20.677Z,26.77
2022-09-25T02:20:52.878Z,25.38
2022-09-25T02:23:24.135Z,27.60
2022-09-25T02:26:16.503Z,27.20
2022-09-25T02:28:43.980Z,28.40
2022-09-25T02:31:13.013Z,27.33
2022-09-25T02:33:40.021Z,25.65
2022-09-25T02:36:07.169Z,26.55
2022-09-25T02:38:36.299Z,27.25
2022-09-25T02:41:21.371Z,27.88
2022-09-25T02:44:06.533Z,25.50
2022-09-25T02:46:58.152Z,26.77
2022-09-25T02:49:49.241Z,27.23
2022-09-25T02:52:36.814Z,26.10
2022-09-25T02:55:23.607Z,27.35
2022-09-25T02:58:01.926Z,26.17
2022-09-25T03:00:29.686Z,25.67
2022-09-25T03:03:00.120Z,23.55
2022-09-25T03:05:27.397Z,24.33
2022-09-25T03:08:13.268Z,24.05
2022-09-25T03:10:41.380Z,23.50
2022-09-25T03:13:26.618Z,22.40
2022-09-25T03:16:01.667Z,21.65
2022-09-25T03:18:29.235Z,21.45
2022-09-25T03:20:56.224Z,24.08
2022-09-25T03:23:23.506Z,23.98
2022-09-25T03:25:54.203Z,25.05
2022-09-25T03:28:22.247Z,22.77
2022-09-25T03:31:01.074Z,23.40
2022-09-25T03:33:35.339Z,22.90
2022-09-25T03:36:09.625Z,25.15
2022-09-25T03:39:02.796Z,25.48
2022-09-25T03:41:32.162Z,23.83
2022-09-25T03:44:00.102Z,27.00
2022-09-25T03:46:32.883Z,26.58
2022-09-25T03:49:02.352Z,28.55
2022-09-25T03:51:31.721Z,25.60
2022-09-25T03:53:59.194Z,27.90
2022-09-25T03:56:27.851Z,26.88
2022-09-25T03:58:55.437Z,32.35
2022-09-25T04:01:23.392Z,30.88
2022-09-25T04:03:51.480Z,26.73
2022-09-25T04:06:22.691Z,29.08
2022-09-25T04:08:50.166Z,28.45
2022-09-25T04:11:18.918Z,25.00
2022-09-25T04:13:46.228Z,24.85
2022-09-25T04:16:16.281Z,24.17
2022-09-25T04:18:44.100Z,23.50
2022-09-25T04:21:13.735Z,23.63
2022-09-25T04:23:41.303Z,23.58
2022-09-25T04:26:09.479Z,23.30
2022-09-25T04:28:37.228Z,23.85
2022-09-25T04:31:04.863Z,23.60
2022-09-25T04:33:48.353Z,22.98
2022-09-25T04:36:19.241Z,22.73
2022-09-25T04:38:48.123Z,28.35
2022-09-25T04:41:20.185Z,24.27
2022-09-25T04:43:47.907Z,26.08
2022-09-25T04:46:20.890Z,25.45
2022-09-25T04:48:49.468Z,26.67
2022-09-25T04:51:16.452Z,29.10
2022-09-25T04:53:43.465Z,27.10
2022-09-25T04:56:16.083Z,25.77
2022-09-25T04:58:48.584Z,24.20
2022-09-25T05:01:17.414Z,23.85
2022-09-25T05:03:44.528Z,22.35
2022-09-25T05:06:11.534Z,22.83
2022-09-25T05:08:38.486Z,22.85
2022-09-25T05:11:05.528Z,22.33
2022-09-25T05:13:32.503Z,22.42
2022-09-25T05:15:59.671Z,22.52
2022-09-25T05:18:26.925Z,21.30
2022-09-25T05:20:54.406Z,20.48
2022-09-25T05:23:22.158Z,20.67
2022-09-25T05:26:49.874Z,22.20
2022-09-25T05:29:16.925Z,22.05
2022-09-25T05:31:46.871Z,21.08
2022-09-25T05:34:14.623Z,21.02
2022-09-25T05:36:41.975Z,20.92
2022-09-25T05:39:14.405Z,21.27
2022-09-25T05:41:41.813Z,20.38
2022-09-25T05:44:10.050Z,21.27
2022-09-25T05:46:37.421Z,21.33
2022-09-25T05:49:05.275Z,21.80
2022-09-25T05:51:33.040Z,21.13
2022-09-25T05:54:02.706Z,22.25
2022-09-25T05:56:29.909Z,23.60
2022-09-25T05:58:58.713Z,24.08
2022-09-25T06:01:26.250Z,24.17
2022-09-25T06:03:53.344Z,24.83
2022-09-25T06:06:23.772Z,25.38
2022-09-25T06:08:54.690Z,27.23
2022-09-25T06:11:22.544Z,23.30
2022-09-25T06:13:54.232Z,22.80
2022-09-25T06:16:21.827Z,23.27
2022-09-25T06:18:48.994Z,23.27
2022-09-25T06:21:16.035Z,23.50
2022-09-25T06:23:48.717Z,22.58
2022-09-25T06:26:15.742Z,22.52
2022-09-25T06:28:42.685Z,20.75
2022-09-25T06:31:10.192Z,21.88
2022-09-25T06:34:44.147Z,21.55
2022-09-25T06:37:11.146Z,20.67
2022-09-25T06:39:38.104Z,20.35
2022-09-25T06:42:05.356Z,19.95
2022-09-25T06:44:32.295Z,18.90
2022-09-25T06:46:59.956Z,19.88
2022-09-25T06:49:26.975Z,19.38
2022-09-25T06:51:54.504Z,19.33
2022-09-25T06:54:21.486Z,19.15
2022-09-25T06:56:51.630Z,19.92
2022-09-25T06:59:18.775Z,19.00
2022-09-25T07:01:45.762Z,18.88
2022-09-25T07:04:13.524Z,19.67
2022-09-25T07:06:40.803Z,18.80
2022-09-25T07:09:07.879Z,20.23
2022-09-25T07:11:35.302Z,18.15
2022-09-25T07:14:02.372Z,20.30
2022-09-25T07:16:30.692Z,16.80
2022-09-25T07:19:00.419Z,18.60
2022-09-25T07:21:30.696Z,18.90
2022-09-25T07:23:59.101Z,18.75
2022-09-25T07:26:30.778Z,17.88
2022-09-25T07:29:00.675Z,17.98
2022-09-25T07:33:57.371Z,16.83
2022-09-25T07:36:24.746Z,17.58
2022-09-25T07:38:52.896Z,17.77
2022-09-25T07:41:22.798Z,17.50
2022-09-25T07:44:40.043Z,18.83
2022-09-25T07:46:46.307Z,18.00
2022-09-25T07:49:13.833Z,19.67
2022-09-25T07:51:41.247Z,20.05
2022-09-25T07:54:08.310Z,20.13
2022-09-25T07:56:35.558Z,23.20
2022-09-25T07:59:02.518Z,23.48
2022-09-25T08:01:29.566Z,22.05
2022-09-25T08:08:15.846Z,21.97
2022-09-25T08:10:42.939Z,22.50
2022-09-25T08:13:10.052Z,21.85
2022-09-25T08:15:37.180Z,22.38
2022-09-25T08:18:04.224Z,24.40
2022-09-25T08:20:32.241Z,24.83
2022-09-25T08:22:59.645Z,24.80
2022-09-25T08:25:26.640Z,22.13
2022-09-25T08:27:53.638Z,22.70
2022-09-25T08:30:20.678Z,24.30
2022-09-25T08:32:47.702Z,22.77
2022-09-25T08:35:15.720Z,25.42
2022-09-25T08:37:42.934Z,24.10
2022-09-25T08:40:18.290Z,26.05
2022-09-25T08:42:48.981Z,26.73
2022-09-25T08:45:46.045Z,27.38
2022-09-25T08:48:39.605Z,25.27
2022-09-25T08:51:08.404Z,25.77
2022-09-25T08:53:36.284Z,27.92
2022-09-25T08:56:14.695Z,26.45
2022-09-25T08:59:12.272Z,25.65
2022-09-25T09:01:55.823Z,22.73
2022-09-25T09:04:28.632Z,23.77
2022-09-25T09:07:26.375Z,22.90
2022-09-25T09:10:01.376Z,24.00
2022-09-25T09:12:41.643Z,23.48
2022-09-25T09:15:33.084Z,19.17
2022-09-25T09:18:17.511Z,19.55
2022-09-25T09:20:55.709Z,17.83
2022-09-25T09:23:29.094Z,18.15
2022-09-25T09:26:10.600Z,19.00
2022-09-25T09:28:46.559Z,18.55
2022-09-25T09:31:13.446Z,16.23
2022-09-25T09:34:09.677Z,16.15
2022-09-25T09:36:39.653Z,13.85
2022-09-25T09:39:46.951Z,14.35
2022-09-25T09:42:26.576Z,15.32
2022-09-25T09:45:12.518Z,15.57
2022-09-25T09:48:15.602Z,15.25
2022-09-25T09:51:05.820Z,15.45
2022-09-25T09:54:13.506Z,14.73
2022-09-25T09:56:44.660Z,14.55
2022-09-25T09:59:40.163Z,15.20
2022-09-25T10:02:34.235Z,13.77
2022-09-25T10:05:04.490Z,12.55
2022-09-25T10:07:34.074Z,11.93
2022-09-25T10:10:01.999Z,11.52
2022-09-25T10:12:36.206Z,11.27
2022-09-25T10:15:13.588Z,12.95
2022-09-25T10:17:41.862Z,11.32
2022-09-25T10:20:21.978Z,10.73
2022-09-25T10:22:53.490Z,11.07
2022-09-25T10:25:38.690Z,10.05
2022-09-25T10:28:26.006Z,8.80
2022-09-25T10:30:53.682Z,7.80
2022-09-25T10:33:25.783Z,8.75
2022-09-25T10:35:55.131Z,9.23
2022-09-25T10:38:31.274Z,9.40
2022-09-25T10:41:14.375Z,8.52
2022-09-25T10:43:55.046Z,8.68
2022-09-25T10:46:50.626Z,11.10
2022-09-25T10:49:41.697Z,9.88
2022-09-25T10:52:27.500Z,9.43
2022-09-25T10:55:14.915Z,9.02
2022-09-25T10:57:42.718Z,8.90
2022-09-25T11:00:24.882Z,8.38
2022-09-25T11:02:56.602Z,8.48
2022-09-25T11:05:33.319Z,8.82
2022-09-25T11:08:04.508Z,9.38
2022-09-25T11:10:37.494Z,9.77
2022-09-25T11:13:26.243Z,9.85
2022-09-25T11:15:58.276Z,8.50
2022-09-25T11:18:38.345Z,8.90
2022-09-25T11:21:16.161Z,9.35
2022-09-25T11:24:12.089Z,9.90
2022-09-25T11:26:46.977Z,8.93
2022-09-25T11:29:44.430Z,9.50
2022-09-25T11:32:37.005Z,9.13
2022-09-25T11:35:13.320Z,8.57
2022-09-25T11:37:53.418Z,7.57
2022-09-25T11:40:39.014Z,7.63
2022-09-25T11:43:09.501Z,7.13
2022-09-25T11:45:48.727Z,7.40
2022-09-25T11:48:39.203Z,8.02
2022-09-25T11:51:12.102Z,7.80
2022-09-25T11:53:48.050Z,7.30
2022-09-25T11:56:36.342Z,7.93
2022-09-25T11:59:29.615Z,7.70
2022-09-25T12:02:21.568Z,7.13
2022-09-25T12:05:50.969Z,7.88
2022-09-25T12:08:33.614Z,7.68
2022-09-25T12:11:35.219Z,8.48
2022-09-25T12:14:14.143Z,7.90
2022-09-25T12:16:50.027Z,8.10
2022-09-25T12:19:38.478Z,6.00
2022-09-25T12:22:17.394Z,6.25
2022-09-25T12:25:01.449Z,6.27
2022-09-25T12:27:39.194Z,6.38
2022-09-25T12:30:19.929Z,5.85
2022-09-25T12:33:19.307Z,6.35
2022-09-25T12:35:49.113Z,6.30
2022-09-25T12:40:49.540Z,5.38
2022-09-25T12:43:30.385Z,5.55
2022-09-25T12:46:00.828Z,5.57
2022-09-25T12:48:40.096Z,5.20
2022-09-25T12:51:18.980Z,5.68
2022-09-25T12:53:51.137Z,5.25
2022-09-25T12:56:37.500Z,5.38
2022-09-25T12:59:36.314Z,5.40
2022-09-25T13:02:27.899Z,5.63
2022-09-25T13:05:21.782Z,4.65
2022-09-25T13:08:05.665Z,3.95
2022-09-25T13:10:46.664Z,3.63
2022-09-25T13:13:24.767Z,3.92
2022-09-25T13:15:58.807Z,4.15
2022-09-25T13:18:28.501Z,4.10
2022-09-25T13:20:57.150Z,3.65
2022-09-25T13:23:37.167Z,4.53
2022-09-25T13:26:17.699Z,3.92
2022-09-25T13:28:56.045Z,4.28
2022-09-25T13:31:46.001Z,4.72
2022-09-25T13:34:15.762Z,4.70
2022-09-25T13:36:50.829Z,4.57
2022-09-25T13:39:46.402Z,4.55
2022-09-25T13:42:46.383Z,5.05
2022-09-25T13:45:27.300Z,4.47
2022-09-25T13:53:16.514Z,4.78
2022-09-25T13:55:55.696Z,4.22
2022-09-25T13:58:28.466Z,4.00
2022-09-25T14:00:58.687Z,4.25
2022-09-25T14:03:46.597Z,4.00
2022-09-25T14:06:36.887Z,3.33
2022-09-25T14:09:18.661Z,3.30
2022-09-25T14:12:13.721Z,3.08
2022-09-25T14:14:55.592Z,3.40
2022-09-25T14:18:16.202Z,3.70
2022-09-25T14:20:46.097Z,3.38
2022-09-25T14:25:44.729Z,3.28
2022-09-25T14:28:21.998Z,3.15
2022-09-25T14:31:22.686Z,3.60
2022-09-25T14:34:15.716Z,3.88
2022-09-25T14:36:45.784Z,4.10
2022-09-25T14:39:29.618Z,4.03
2022-09-25T14:42:31.804Z,4.75
2022-09-25T14:45:17.997Z,4.35
2022-09-25T14:47:49.220Z,4.72
2022-09-25T14:50:24.121Z,4.85
2022-09-25T14:52:58.927Z,4.50
2022-09-25T14:55:36.900Z,5.88
2022-09-25T14:59:03.234Z,5.75
2022-09-25T15:01:32.900Z,5.80
2022-09-25T15:04:05.917Z,5.43
2022-09-25T15:10:39.505Z,5.60
2022-09-25T15:13:21.097Z,5.80
2022-09-25T15:16:12.545Z,6.10
2022-09-25T15:18:42.291Z,5.57
2022-09-25T15:21:26.314Z,5.45
2022-09-25T15:23:55.781Z,4.85
2022-09-25T15:26:23.148Z,3.60
2022-09-25T15:28:51.805Z,3.55
2022-09-25T15:31:19.133Z,2.90
2022-09-25T15:34:02.302Z,2.90
2022-09-25T15:36:29.805Z,2.45
2022-09-25T15:39:03.260Z,2.53
2022-09-25T15:41:30.489Z,2.30
2022-09-25T15:44:16.368Z,2.33
2022-09-25T15:46:55.664Z,2.35
2022-09-25T15:49:35.887Z,1.80
2022-09-25T15:52:06.226Z,2.08
2022-09-25T15:54:44.528Z,2.17
2022-09-25T15:57:15.327Z,2.33
2022-09-25T16:00:06.625Z,2.63
2022-09-25T16:03:30.383Z,2.42
2022-09-25T16:05:58.036Z,2.95
2022-09-25T16:08:25.016Z,3.20
2022-09-25T16:11:04.208Z,3.08
2022-09-25T16:13:33.251Z,3.72
2022-09-25T16:16:00.968Z,3.72
2022-09-25T16:23:14.463Z,4.63
2022-09-25T16:25:45.249Z,4.05
2022-09-25T16:28:19.635Z,4.97
2022-09-25T16:31:03.672Z,4.25
2022-09-25T16:33:40.123Z,4.68
2022-09-25T16:36:17.519Z,5.00
2022-09-25T16:39:08.436Z,4.70
2022-09-25T16:41:37.437Z,4.85
2022-09-25T16:44:34.744Z,5.40
2022-09-25T16:47:17.180Z,4.50
2022-09-25T16:49:45.063Z,4.45
2022-09-25T16:52:20.649Z,5.25
2022-09-25T16:54:53.216Z,5.43
2022-09-25T16:58:15.723Z,4.55
2022-09-25T17:00:42.867Z,4.57
2022-09-25T17:03:12.693Z,3.92
2022-09-25T17:05:39.936Z,3.50
2022-09-25T17:08:21.684Z,3.85
2022-09-25T17:10:51.328Z,3.60
2022-09-25T17:15:49.552Z,3.47
2022-09-25T17:18:21.301Z,3.80
2022-09-25T17:20:53.273Z,3.15
2022-09-25T17:23:22.623Z,3.00
2022-09-25T17:25:52.269Z,2.88
2022-09-25T17:28:19.237Z,2.95
2022-09-25T17:30:46.487Z,2.80
2022-09-25T17:33:19.042Z,3.58
2022-09-25T17:36:04.216Z,3.58
2022-09-25T17:38:34.900Z,3.47
2022-09-25T17:41:12.619Z,3.17
2022-09-25T17:43:41.229Z,3.45
2022-09-25T17:46:09.453Z,3.78
2022-09-25T17:48:36.506Z,3.70
2022-09-25T17:51:15.063Z,4.25
2022-09-25T17:53:42.256Z,4.47
2022-09-25T17:56:10.901Z,5.32
2022-09-25T17:58:38.301Z,4.88
2022-09-25T18:01:13.928Z,5.70
2022-09-25T18:03:40.962Z,7.10
2022-09-25T18:06:07.969Z,6.90
2022-09-25T18:08:35.220Z,7.35
2022-09-25T18:11:03.043Z,7.82
2022-09-25T18:13:30.041Z,8.15
2022-09-25T18:15:59.244Z,8.52
2022-09-25T18:18:46.583Z,8.52
2022-09-25T18:21:31.960Z,8.98
2022-09-25T18:23:58.933Z,8.30
2022-09-25T18:26:31.078Z,9.38
2022-09-25T18:28:58.487Z,9.48
2022-09-25T18:31:25.788Z,9.80
2022-09-25T18:33:54.898Z,9.63
2022-09-25T18:36:22.942Z,9.48
2022-09-25T18:38:49.891Z,10.20
2022-09-25T18:41:17.140Z,10.35
2022-09-25T18:43:44.079Z,10.32
2022-09-25T18:46:11.425Z,10.23
2022-09-25T18:48:38.802Z,10.27
2022-09-25T18:51:07.387Z,10.55
2022-09-25T18:53:34.347Z,11.27
2022-09-25T18:56:01.555Z,11.00
2022-09-25T18:58:31.762Z,12.35
2022-09-25T19:00:58.857Z,13.02
2022-09-25T19:03:26.096Z,13.13
2022-09-25T19:06:00.075Z,13.60
2022-09-25T19:08:27.354Z,14.65
2022-09-25T19:10:54.544Z,14.73
2022-09-25T19:13:21.601Z,15.63
2022-09-25T19:15:49.055Z,15.85
2022-09-25T19:18:16.264Z,15.50
2022-09-25T19:20:53.309Z,16.10
2022-09-25T19:23:22.308Z,17.00
2022-09-25T19:25:54.013Z,15.90
2022-09-25T19:28:23.696Z,16.00
2022-09-25T19:31:21.060Z,16.20
2022-09-25T19:33:49.011Z,16.98
2022-09-25T19:36:19.556Z,17.45
2022-09-25T19:38:47.344Z,15.65
2022-09-25T19:41:16.876Z,16.83
2022-09-25T19:43:44.613Z,16.92
2022-09-25T19:46:20.171Z,17.35
2022-09-25T19:48:48.738Z,17.13
2022-09-25T19:51:18.035Z,17.17
2022-09-25T19:53:46.192Z,16.95
2022-09-25T19:56:13.719Z,16.85
2022-09-25T19:58:41.094Z,16.77
2022-09-25T20:01:14.333Z,16.85
2022-09-25T20:03:42.235Z,15.30
2022-09-25T20:06:10.842Z,16.05
2022-09-25T20:08:38.633Z,15.82
2022-09-25T20:11:18.717Z,17.17
2022-09-25T20:13:47.130Z,16.95
2022-09-25T20:16:17.464Z,16.65
2022-09-25T20:18:51.667Z,17.90
2022-09-25T20:21:21.448Z,17.30
2022-09-25T20:26:20.393Z,17.35
2022-09-25T20:28:58.434Z,16.42
2022-09-25T20:31:27.272Z,18.20
2022-09-25T20:33:54.936Z,17.88
2022-09-25T20:36:22.589Z,18.35
2022-09-25T20:38:51.574Z,19.25
2022-09-25T20:41:19.475Z,18.02
2022-09-25T20:43:53.434Z,18.58
2022-09-25T20:46:21.602Z,17.20
2022-09-25T20:48:51.431Z,18.08
2022-09-25T20:54:02.678Z,18.00
2022-09-25T20:56:31.218Z,18.60
2022-09-25T20:59:18.920Z,18.42
2022-09-25T21:01:46.710Z,18.50
2022-09-25T21:04:17.201Z,17.40
2022-09-25T21:06:44.450Z,18.30
2022-09-25T21:09:20.441Z,17.25
2022-09-25T21:12:58.459Z,18.05
2022-09-25T21:15:27.906Z,17.98
2022-09-25T21:17:55.057Z,17.65
2022-09-25T21:20:22.023Z,17.38
2022-09-25T21:22:48.991Z,16.42
2022-09-25T21:25:16.087Z,17.20
2022-09-25T21:27:43.041Z,17.65
2022-09-25T21:30:10.624Z,17.80
2022-09-25T21:32:37.634Z,17.65
2022-09-25T21:35:04.999Z,17.80
2022-09-25T21:37:31.960Z,19.00
2022-09-25T21:39:59.036Z,17.95
2022-09-25T21:42:26.004Z,19.02
2022-09-25T21:44:53.001Z,18.50
2022-09-25T21:47:20.092Z,17.92
2022-09-25T21:49:47.201Z,18.67
2022-09-25T21:52:14.162Z,18.17
2022-09-25T21:54:41.133Z,18.20
2022-09-25T21:57:08.120Z,17.75
2022-09-25T21:59:35.050Z,17.90
2022-09-25T22:02:02.016Z,18.15
2022-09-25T22:04:28.982Z,16.45
2022-09-25T22:06:57.531Z,18.20
2022-09-25T22:09:24.770Z,17.25
2022-09-25T22:11:52.369Z,15.93
2022-09-25T22:14:21.353Z,16.80
2022-09-25T22:16:50.533Z,16.50
2022-09-25T22:19:23.629Z,15.65
2022-09-25T22:21:51.779Z,16.77
2022-09-25T22:24:19.360Z,16.42
2022-09-25T22:26:48.664Z,15.63
2022-09-25T22:29:16.625Z,16.13
2022-09-25T22:31:44.406Z,16.55
2022-09-25T22:34:22.564Z,16.25
2022-09-25T22:36:53.574Z,15.10
2022-09-25T22:39:23.365Z,14.70
2022-09-25T22:41:54.626Z,15.32
2022-09-25T22:44:21.818Z,14.50
2022-09-25T22:46:48.842Z,15.13
2022-09-25T22:49:15.926Z,14.27
2022-09-25T22:51:42.919Z,14.07
2022-09-25T22:54:13.239Z,14.15
2022-09-25T22:56:40.700Z,13.90
2022-09-25T22:59:12.316Z,14.13
2022-09-25T23:01:49.492Z,13.95
2022-09-25T23:04:25.630Z,13.25
2022-09-25T23:06:53.041Z,13.05
2022-09-25T23:09:22.377Z,13.88
2022-09-25T23:11:49.649Z,12.32
2022-09-25T23:14:22.624Z,12.07
2022-09-25T23:16:51.874Z,13.10
2022-09-25T23:19:19.429Z,12.93
2022-09-25T23:21:46.629Z,13.25
2022-09-25T23:24:16.122Z,12.52
2022-09-25T23:27:15.311Z,12.75
2022-09-25T23:29:42.472Z,11.98
2022-09-25T23:32:10.449Z,13.27
2022-09-25T23:34:37.426Z,12.45
2022-09-25T23:37:04.409Z,12.32
2022-09-25T23:39:31.478Z,13.20
2022-09-25T23:41:58.540Z,11.52
2022-09-25T23:44:25.565Z,12.38
2022-09-25T23:46:52.495Z,12.52
2022-09-25T23:49:19.563Z,13.73
2022-09-25T23:51:46.768Z,11.90
2022-09-25T23:54:14.055Z,13.75
2022-09-25T23:56:41.357Z,12.35
2022-09-25T23:59:11.231Z,12.02
